Time;durP1;ratioP1;P1;durP2;ratioP2;P2;SDS_P1;SDS_P2;PMS_P1;PMS_P2;Temp;Humidity;BMP_temperature;BMP_pressure;BME280_temperature;BME280_humidity;BME280_pressure;Samples;Min_cycle;Max_cycle;Signal;HPM_P1;HPM_P2
2022/03/03 00:02:45;;;;;;;91.32;39.97;;;;;;;;;;10314856;28;20318;-66
2022/03/03 00:07:49;;;;;;;81.03;38.15;;;;;;;;;;10314499;28;20046;-66
2022/03/03 00:12:51;;;;;;;80.50;38.35;;;;;;;;;;10314013;28;20353;-67
2022/03/03 00:17:56;;;;;;;87.57;39.58;;;;;;;;;;10302209;28;20054;-67
2022/03/03 00:23:00;;;;;;;94.47;41.00;;;;;;;;;;10284068;28;20070;-66
2022/03/03 00:28:03;;;;;;;95.50;41.13;;;;;;;;;;10309083;28;20243;-66
2022/03/03 00:33:06;;;;;;;93.13;42.42;;;;;;;;;;10313384;28;20356;-66
2022/03/03 00:38:10;;;;;;;90.45;39.90;;;;;;;;;;10327228;28;20058;-66
2022/03/03 00:43:12;;;;;;;97.22;42.22;;;;;;;;;;10313504;28;20059;-66
2022/03/03 00:48:14;;;;;;;97.45;43.72;;;;;;;;;;10298582;28;20102;-67
2022/03/03 00:53:19;;;;;;;95.53;42.72;;;;;;;;;;10284938;28;20133;-67
2022/03/03 00:58:21;;;;;;;87.30;41.70;;;;;;;;;;10298408;28;20102;-66
2022/03/03 01:03:23;;;;;;;93.28;41.75;;;;;;;;;;10273531;28;20094;-66
2022/03/03 01:08:27;;;;;;;94.53;44.63;;;;;;;;;;10295400;28;20062;-66
2022/03/03 01:13:29;;;;;;;104.85;46.60;;;;;;;;;;10312357;28;20042;-67
2022/03/03 01:18:32;;;;;;;103.05;44.80;;;;;;;;;;10291215;28;20223;-66
2022/03/03 01:23:36;;;;;;;104.65;43.70;;;;;;;;;;10298355;28;20050;-66
2022/03/03 01:28:38;;;;;;;106.07;46.78;;;;;;;;;;10312359;28;20046;-67
2022/03/03 01:33:41;;;;;;;115.53;47.50;;;;;;;;;;10309889;28;20062;-65
2022/03/03 01:38:44;;;;;;;116.35;48.92;;;;;;;;;;10306614;28;20187;-67
2022/03/03 01:43:47;;;;;;;112.82;49.00;;;;;;;;;;10271649;29;20039;-66
2022/03/03 01:48:49;;;;;;;110.72;49.17;;;;;;;;;;10270379;28;20266;-65
2022/03/03 01:53:53;;;;;;;125.63;49.78;;;;;;;;;;10270266;28;20346;-66
2022/03/03 01:58:55;;;;;;;115.22;50.35;;;;;;;;;;10298080;28;20066;-67
2022/03/03 02:03:58;;;;;;;123.55;53.13;;;;;;;;;;10296031;28;20051;-67
2022/03/03 02:09:03;;;;;;;113.57;50.03;;;;;;;;;;10278468;28;20043;-66
2022/03/03 02:14:06;;;;;;;106.10;47.70;;;;;;;;;;10302186;28;20054;-66
2022/03/03 02:19:14;;;;;;;108.25;47.03;;;;;;;;;;10270615;28;20055;-66
2022/03/03 02:24:19;;;;;;;115.30;48.90;;;;;;;;;;10291223;28;20050;-67
2022/03/03 02:29:22;;;;;;;116.28;49.65;;;;;;;;;;10310003;28;20088;-67
2022/03/03 02:34:25;;;;;;;104.90;48.42;;;;;;;;;;10294274;28;20066;-67
2022/03/03 02:39:28;;;;;;;114.00;50.20;;;;;;;;;;10255274;28;20054;-67
2022/03/03 02:44:30;;;;;;;109.47;48.10;;;;;;;;;;10249693;28;20247;-66
2022/03/03 02:49:33;;;;;;;121.38;53.97;;;;;;;;;;10230667;28;20051;-67
2022/03/03 02:54:36;;;;;;;113.60;49.40;;;;;;;;;;10253340;28;20325;-66
2022/03/03 02:59:39;;;;;;;117.22;51.97;;;;;;;;;;10298678;28;20055;-66
2022/03/03 03:04:41;;;;;;;106.47;46.80;;;;;;;;;;10280909;28;20098;-67
2022/03/03 03:09:45;;;;;;;102.10;46.58;;;;;;;;;;10309115;28;20047;-66
2022/03/03 03:14:47;;;;;;;109.07;47.40;;;;;;;;;;10298622;28;20058;-65
2022/03/03 03:19:50;;;;;;;112.97;49.88;;;;;;;;;;10285457;28;20050;-66
2022/03/03 03:24:53;;;;;;;112.43;48.80;;;;;;;;;;10317052;28;20231;-67
2022/03/03 03:29:58;;;;;;;122.47;51.13;;;;;;;;;;10317237;28;20050;-67
2022/03/03 03:35:00;;;;;;;112.43;48.67;;;;;;;;;;10315922;28;20051;-66
2022/03/03 03:40:05;;;;;;;106.90;48.63;;;;;;;;;;10316297;28;20349;-67
2022/03/03 03:45:09;;;;;;;121.77;53.87;;;;;;;;;;10316359;28;20047;-66
2022/03/03 03:50:13;;;;;;;118.07;51.47;;;;;;;;;;10307422;28;20303;-66
2022/03/03 03:55:17;;;;;;;118.72;52.10;;;;;;;;;;10275866;28;20043;-66
2022/03/03 04:00:19;;;;;;;110.25;50.20;;;;;;;;;;10284143;28;20039;-66
2022/03/03 04:05:22;;;;;;;109.13;48.25;;;;;;;;;;10308448;28;20270;-66
2022/03/03 04:10:27;;;;;;;120.68;53.75;;;;;;;;;;10282741;28;20277;-67
2022/03/03 04:15:30;;;;;;;116.10;50.75;;;;;;;;;;10320599;28;20051;-67
2022/03/03 04:20:33;;;;;;;120.13;52.65;;;;;;;;;;10274705;28;20050;-67
2022/03/03 04:25:36;;;;;;;115.35;49.30;;;;;;;;;;10281000;28;20042;-65
2022/03/03 04:30:39;;;;;;;111.30;49.20;;;;;;;;;;10308031;28;20043;-66
2022/03/03 04:35:42;;;;;;;99.65;45.38;;;;;;;;;;10273972;28;20114;-67
2022/03/03 04:40:45;;;;;;;90.43;41.33;;;;;;;;;;10274235;28;20043;-67
2022/03/03 04:45:48;;;;;;;102.30;43.72;;;;;;;;;;10268409;28;20056;-66
2022/03/03 04:50:50;;;;;;;95.70;42.67;;;;;;;;;;10243308;28;20101;-66
2022/03/03 04:55:54;;;;;;;92.55;40.88;;;;;;;;;;10313735;28;20045;-66
2022/03/03 05:00:56;;;;;;;94.78;42.08;;;;;;;;;;10312857;28;20050;-67
2022/03/03 05:05:58;;;;;;;94.00;41.60;;;;;;;;;;10313363;28;20070;-66
2022/03/03 05:11:02;;;;;;;90.53;43.55;;;;;;;;;;10312939;28;20038;-66
2022/03/03 05:16:05;;;;;;;89.28;42.80;;;;;;;;;;10297580;28;20051;-66
2022/03/03 05:21:08;;;;;;;110.05;48.67;;;;;;;;;;10274307;28;20117;-67
2022/03/03 05:26:11;;;;;;;97.55;45.92;;;;;;;;;;10273654;28;20091;-67
2022/03/03 05:31:14;;;;;;;100.90;47.75;;;;;;;;;;10310983;28;20054;-66
2022/03/03 05:36:17;;;;;;;106.25;44.80;;;;;;;;;;10260094;28;20369;-66
2022/03/03 05:41:21;;;;;;;102.93;45.97;;;;;;;;;;10251384;28;20114;-67
2022/03/03 05:46:24;;;;;;;97.30;47.03;;;;;;;;;;10272269;28;20063;-67
2022/03/03 05:51:26;;;;;;;96.25;42.65;;;;;;;;;;10279607;28;20102;-66
2022/03/03 05:56:32;;;;;;;101.05;43.65;;;;;;;;;;10298382;28;20047;-67
2022/03/03 06:01:38;;;;;;;86.30;37.30;;;;;;;;;;10296676;28;20080;-66
2022/03/03 06:06:45;;;;;;;116.30;43.05;;;;;;;;;;10288448;28;20035;-66
2022/03/03 06:11:54;;;;;;;136.50;40.08;;;;;;;;;;10272374;28;20376;-66
2022/03/03 06:16:58;;;;;;;167.32;37.60;;;;;;;;;;10300466;28;20046;-66
2022/03/03 06:22:01;;;;;;;165.80;32.22;;;;;;;;;;10293199;28;20334;-67
2022/03/03 06:27:05;;;;;;;157.48;35.22;;;;;;;;;;10266413;28;20043;-66
2022/03/03 06:32:09;;;;;;;129.18;35.03;;;;;;;;;;10245952;28;20086;-67
2022/03/03 06:37:12;;;;;;;135.68;37.63;;;;;;;;;;10269623;28;20063;-66
2022/03/03 06:42:15;;;;;;;127.40;36.92;;;;;;;;;;10275894;28;20043;-68
2022/03/03 06:47:18;;;;;;;108.82;38.78;;;;;;;;;;10270388;29;20054;-67
2022/03/03 06:52:25;;;;;;;99.00;40.90;;;;;;;;;;10279857;28;20106;-67
2022/03/03 06:57:30;;;;;;;102.85;40.00;;;;;;;;;;10293987;28;20062;-66
2022/03/03 07:02:33;;;;;;;97.50;38.87;;;;;;;;;;10302456;28;20046;-65
2022/03/03 07:07:36;;;;;;;105.50;39.63;;;;;;;;;;10292583;28;20368;-66
2022/03/03 07:12:40;;;;;;;99.95;39.85;;;;;;;;;;10292678;28;20122;-67
2022/03/03 07:17:49;;;;;;;96.30;40.22;;;;;;;;;;10253223;28;20059;-66
2022/03/03 07:23:14;;;;;;;94.32;42.13;;;;;;;;;;10282473;28;20255;-67
2022/03/03 07:28:20;;;;;;;93.25;40.28;;;;;;;;;;10305400;28;20314;-66
2022/03/03 07:33:29;;;;;;;91.88;39.80;;;;;;;;;;10299429;28;20102;-66
2022/03/03 07:38:36;;;;;;;95.47;42.42;;;;;;;;;;10284572;28;20334;-66
2022/03/03 07:43:40;;;;;;;101.95;44.15;;;;;;;;;;10318348;28;20039;-66
2022/03/03 07:48:45;;;;;;;95.07;41.30;;;;;;;;;;10283381;28;20233;-67
2022/03/03 07:53:47;;;;;;;87.32;40.63;;;;;;;;;;10276547;28;20043;-67
2022/03/03 07:58:55;;;;;;;92.50;40.97;;;;;;;;;;10279123;28;20059;-66
2022/03/03 08:04:02;;;;;;;84.30;39.95;;;;;;;;;;10303884;28;20325;-67
2022/03/03 08:09:04;;;;;;;87.43;40.83;;;;;;;;;;10299118;28;20043;-66
2022/03/03 08:14:08;;;;;;;82.78;40.03;;;;;;;;;;10303286;28;20051;-66
2022/03/03 08:19:11;;;;;;;85.80;40.43;;;;;;;;;;10287372;28;20331;-66
2022/03/03 08:24:13;;;;;;;78.75;37.97;;;;;;;;;;10301598;28;20063;-66
2022/03/03 08:29:17;;;;;;;82.88;36.03;;;;;;;;;;10275066;28;20070;-66
2022/03/03 08:34:29;;;;;;;77.32;39.45;;;;;;;;;;10248158;28;20051;-66
2022/03/03 08:39:38;;;;;;;68.05;36.50;;;;;;;;;;10275470;28;20043;-66
2022/03/03 08:44:44;;;;;;;78.85;40.03;;;;;;;;;;10275878;29;20255;-65
2022/03/03 08:49:56;;;;;;;72.22;35.90;;;;;;;;;;10274501;28;20046;-67
2022/03/03 08:54:58;;;;;;;78.80;39.75;;;;;;;;;;10282721;28;20054;-66
2022/03/03 09:00:07;;;;;;;70.63;35.63;;;;;;;;;;10296433;28;20098;-65
2022/03/03 09:05:10;;;;;;;70.65;36.00;;;;;;;;;;10248089;29;20044;-65
2022/03/03 09:10:13;;;;;;;73.53;36.65;;;;;;;;;;10274909;28;20058;-67
2022/03/03 09:15:17;;;;;;;73.53;37.13;;;;;;;;;;10302085;28;20086;-65
2022/03/03 09:20:19;;;;;;;70.15;34.83;;;;;;;;;;10266392;28;20397;-66
2022/03/03 09:25:23;;;;;;;79.55;39.25;;;;;;;;;;10273278;28;20047;-67
2022/03/03 09:30:28;;;;;;;76.85;37.80;;;;;;;;;;10273430;28;20246;-65
2022/03/03 09:35:31;;;;;;;74.63;35.45;;;;;;;;;;10272675;28;20075;-65
2022/03/03 09:40:33;;;;;;;61.90;31.27;;;;;;;;;;10275027;28;20043;-71
2022/03/03 09:45:39;;;;;;;67.95;34.60;;;;;;;;;;10255326;28;20152;-67
2022/03/03 09:50:42;;;;;;;64.90;32.70;;;;;;;;;;10286144;28;20314;-66
2022/03/03 09:55:46;;;;;;;59.65;29.42;;;;;;;;;;10271924;28;20036;-67
2022/03/03 10:00:50;;;;;;;51.88;28.58;;;;;;;;;;10270080;29;20050;-66
2022/03/03 10:05:56;;;;;;;51.47;27.23;;;;;;;;;;10272141;28;20035;-66
2022/03/03 10:11:00;;;;;;;54.53;29.58;;;;;;;;;;10284838;28;20051;-66
2022/03/03 10:16:04;;;;;;;52.05;27.50;;;;;;;;;;10272201;28;20265;-66
2022/03/03 10:21:08;;;;;;;60.90;31.90;;;;;;;;;;10261639;28;20048;-66
2022/03/03 10:26:10;;;;;;;59.47;28.63;;;;;;;;;;10272345;28;20043;-67
2022/03/03 10:31:16;;;;;;;56.40;30.77;;;;;;;;;;10272770;28;20063;-66
2022/03/03 10:36:21;;;;;;;62.45;30.92;;;;;;;;;;10268250;28;20066;-67
2022/03/03 10:41:41;;;;;;;;;;;;;;;;;;10308692;28;20051;-67
2022/03/03 10:47:04;;;;;;;64.65;33.30;;;;;;;;;;10281773;28;20225;-67
2022/03/03 10:52:12;;;;;;;72.05;34.63;;;;;;;;;;10253210;28;20055;-66
2022/03/03 10:57:30;;;;;;;63.55;31.65;;;;;;;;;;10259423;28;20261;-67
2022/03/03 11:02:35;;;;;;;60.80;31.35;;;;;;;;;;10307252;28;20327;-66
2022/03/03 11:07:39;;;;;;;55.65;27.15;;;;;;;;;;10267461;29;20067;-67
2022/03/03 11:12:43;;;;;;;57.92;30.10;;;;;;;;;;10306685;28;20118;-67
2022/03/03 11:17:48;;;;;;;55.90;28.90;;;;;;;;;;10292584;28;20039;-67
2022/03/03 11:22:55;;;;;;;53.47;25.10;;;;;;;;;;10229546;29;20048;-66
2022/03/03 11:28:03;;;;;;;50.67;25.20;;;;;;;;;;10247990;29;20059;-67
2022/03/03 11:33:26;;;;;;;44.47;22.52;;;;;;;;;;10264582;28;20216;-67
2022/03/03 11:38:43;;;;;;;41.28;20.70;;;;;;;;;;10272811;28;20038;-67
2022/03/03 11:43:48;;;;;;;33.00;18.60;;;;;;;;;;10329661;28;20187;-68
2022/03/03 11:49:10;;;;;;;36.17;19.23;;;;;;;;;;10287260;28;20058;-65
2022/03/03 11:54:13;;;;;;;38.58;18.95;;;;;;;;;;10298037;28;20074;-67
2022/03/03 11:59:16;;;;;;;34.72;18.67;;;;;;;;;;10315274;28;20058;-66
2022/03/03 12:04:20;;;;;;;34.33;17.98;;;;;;;;;;10278651;28;20043;-66
2022/03/03 12:09:26;;;;;;;35.47;17.90;;;;;;;;;;10285196;28;20061;-66
2022/03/03 12:14:33;;;;;;;36.67;19.80;;;;;;;;;;10308138;28;20063;-68
2022/03/03 12:19:38;;;;;;;44.78;20.58;;;;;;;;;;10304488;28;20055;-67
2022/03/03 12:24:41;;;;;;;32.67;17.42;;;;;;;;;;10283775;28;20090;-67
2022/03/03 12:30:08;;;;;;;28.27;15.30;;;;;;;;;;10277059;28;20050;-71
2022/03/03 12:35:28;;;;;;;29.95;17.80;;;;;;;;;;10284165;28;20066;-68
2022/03/03 12:40:31;;;;;;;30.90;16.48;;;;;;;;;;10289069;28;20082;-66
2022/03/03 12:45:33;;;;;;;31.45;16.55;;;;;;;;;;10279315;28;20042;-70
2022/03/03 12:50:37;;;;;;;29.92;16.58;;;;;;;;;;10281305;28;20074;-68
2022/03/03 12:55:43;;;;;;;31.67;16.13;;;;;;;;;;10290678;28;20074;-69
2022/03/03 13:00:48;;;;;;;27.25;14.50;;;;;;;;;;10289201;28;20059;-67
2022/03/03 13:05:57;;;;;;;26.98;15.18;;;;;;;;;;10274561;28;20051;-68
2022/03/03 13:11:02;;;;;;;29.88;16.20;;;;;;;;;;10263680;28;20051;-68
2022/03/03 13:16:14;;;;;;;25.70;15.10;;;;;;;;;;10272870;28;20039;-68
2022/03/03 13:21:19;;;;;;;28.17;14.25;;;;;;;;;;10271895;28;20312;-67
2022/03/03 13:26:24;;;;;;;26.02;14.85;;;;;;;;;;10272056;28;20082;-68
2022/03/03 13:31:26;;;;;;;27.48;14.13;;;;;;;;;;10272570;28;20050;-68
2022/03/03 13:36:36;;;;;;;23.02;13.55;;;;;;;;;;10271697;28;20118;-68
2022/03/03 13:41:41;;;;;;;28.02;14.63;;;;;;;;;;10285738;28;20043;-68
2022/03/03 13:46:56;;;;;;;27.40;16.17;;;;;;;;;;10272047;28;20038;-67
2022/03/03 13:52:22;;;;;;;26.63;15.13;;;;;;;;;;10272537;29;20039;-68
2022/03/03 13:57:46;;;;;;;30.55;17.50;;;;;;;;;;10268209;29;20408;-67
2022/03/03 14:02:53;;;;;;;30.45;14.93;;;;;;;;;;10267461;28;20055;-68
2022/03/03 14:07:57;;;;;;;20.83;12.80;;;;;;;;;;10285317;28;20326;-67
2022/03/03 14:13:04;;;;;;;23.17;12.93;;;;;;;;;;10271644;28;20258;-69
2022/03/03 14:18:06;;;;;;;25.83;14.13;;;;;;;;;;10271825;28;20043;-68
2022/03/03 14:23:10;;;;;;;27.00;14.43;;;;;;;;;;10270914;28;20346;-68
2022/03/03 14:28:12;;;;;;;25.73;13.80;;;;;;;;;;10269355;28;20369;-66
2022/03/03 14:33:15;;;;;;;24.33;13.65;;;;;;;;;;10271229;28;20047;-67
2022/03/03 14:38:20;;;;;;;26.38;14.90;;;;;;;;;;10284480;28;20266;-68
2022/03/03 14:43:23;;;;;;;31.80;15.93;;;;;;;;;;10270578;28;20066;-71
2022/03/03 14:48:25;;;;;;;23.13;12.98;;;;;;;;;;10263680;28;20301;-68
2022/03/03 14:53:29;;;;;;;26.67;12.75;;;;;;;;;;10256478;28;20366;-64
2022/03/03 14:58:31;;;;;;;26.45;14.43;;;;;;;;;;10243934;29;20266;-68
2022/03/03 15:03:33;;;;;;;31.70;15.50;;;;;;;;;;10270980;29;20055;-67
2022/03/03 15:08:37;;;;;;;30.35;14.85;;;;;;;;;;10271065;29;20350;-66
2022/03/03 15:13:39;;;;;;;27.92;14.90;;;;;;;;;;10273749;28;20051;-69
2022/03/03 15:18:42;;;;;;;26.42;14.32;;;;;;;;;;10278829;28;20245;-67
2022/03/03 15:23:46;;;;;;;31.42;16.17;;;;;;;;;;10278982;29;20061;-67
2022/03/03 15:28:48;;;;;;;29.08;14.57;;;;;;;;;;10277861;29;20106;-68
2022/03/03 15:39:13;;;;;;;31.63;17.38;;;;;;;;;;10290748;28;20047;-68
2022/03/03 15:44:16;;;;;;;32.15;15.80;;;;;;;;;;10277332;28;20051;-68
2022/03/03 15:49:21;;;;;;;30.73;15.65;;;;;;;;;;10276352;28;20050;-69
2022/03/03 15:54:25;;;;;;;33.50;16.50;;;;;;;;;;10277040;28;20043;-67
2022/03/03 15:59:27;;;;;;;36.15;19.20;;;;;;;;;;10276678;28;20043;-68
2022/03/03 16:04:30;;;;;;;35.05;16.60;;;;;;;;;;10277206;28;20047;-67
2022/03/03 16:09:37;;;;;;;34.10;16.60;;;;;;;;;;10276390;28;20054;-66
2022/03/03 16:14:39;;;;;;;34.75;17.55;;;;;;;;;;10291070;28;20043;-66
2022/03/03 16:19:44;;;;;;;38.00;19.48;;;;;;;;;;10277364;28;20043;-70
2022/03/03 16:24:48;;;;;;;37.07;17.33;;;;;;;;;;10275357;28;20058;-66
2022/03/03 16:29:51;;;;;;;31.67;17.88;;;;;;;;;;10276516;28;20047;-71
2022/03/03 16:34:55;;;;;;;41.92;18.63;;;;;;;;;;10275456;28;20059;-67
2022/03/03 16:39:59;;;;;;;54.50;22.92;;;;;;;;;;10274955;28;20401;-66
2022/03/03 16:45:01;;;;;;;118.93;37.42;;;;;;;;;;10275881;28;20053;-68
2022/03/03 16:50:04;;;;;;;110.03;38.33;;;;;;;;;;10275179;28;20051;-68
2022/03/03 16:55:09;;;;;;;112.90;40.83;;;;;;;;;;10275675;28;20047;-66
2022/03/03 17:00:13;;;;;;;132.93;49.33;;;;;;;;;;10275300;28;20046;-67
2022/03/03 17:05:15;;;;;;;136.30;48.10;;;;;;;;;;10275552;28;20480;-68
2022/03/03 17:10:19;;;;;;;108.95;44.50;;;;;;;;;;10275303;28;20059;-69
2022/03/03 17:15:24;;;;;;;99.15;37.72;;;;;;;;;;10274620;28;20330;-68
2022/03/03 17:20:27;;;;;;;93.05;36.22;;;;;;;;;;10287690;28;20047;-70
2022/03/03 17:25:30;;;;;;;81.63;31.88;;;;;;;;;;10274208;28;20107;-68
2022/03/03 17:30:33;;;;;;;77.38;31.30;;;;;;;;;;10274587;28;20051;-68
2022/03/03 17:35:36;;;;;;;72.72;30.60;;;;;;;;;;10273032;28;20059;-67
2022/03/03 17:40:40;;;;;;;74.63;31.85;;;;;;;;;;10273292;29;20054;-68
2022/03/03 17:45:43;;;;;;;73.15;31.52;;;;;;;;;;10273108;29;20345;-69
2022/03/03 17:50:45;;;;;;;72.43;30.42;;;;;;;;;;10273449;28;20062;-66
2022/03/03 17:55:49;;;;;;;139.02;58.08;;;;;;;;;;10273213;28;20330;-68
2022/03/03 18:00:52;;;;;;;132.25;55.55;;;;;;;;;;10272418;28;20050;-67
2022/03/03 18:05:54;;;;;;;92.30;38.05;;;;;;;;;;10271931;28;20039;-69
2022/03/03 18:10:58;;;;;;;77.00;30.35;;;;;;;;;;10272297;29;20348;-68
2022/03/03 18:16:00;;;;;;;72.20;30.63;;;;;;;;;;10271966;28;20050;-67
2022/03/03 18:21:03;;;;;;;80.45;31.52;;;;;;;;;;10270882;29;20043;-71
2022/03/03 18:26:07;;;;;;;78.65;32.67;;;;;;;;;;10272955;28;20046;-68
2022/03/03 18:31:09;;;;;;;78.72;31.20;;;;;;;;;;10266610;28;20102;-68
2022/03/03 18:36:13;;;;;;;100.10;37.35;;;;;;;;;;10273308;28;20052;-67
2022/03/03 18:41:16;;;;;;;106.38;39.42;;;;;;;;;;10260592;28;20326;-68
2022/03/03 18:46:19;;;;;;;110.22;42.88;;;;;;;;;;10272528;28;20051;-67
2022/03/03 18:51:21;;;;;;;110.07;42.15;;;;;;;;;;10280481;28;20277;-68
2022/03/03 18:56:25;;;;;;;107.57;38.90;;;;;;;;;;10279493;28;20043;-69
2022/03/03 19:01:28;;;;;;;93.97;36.85;;;;;;;;;;10279447;28;20349;-68
2022/03/03 19:06:30;;;;;;;83.63;34.28;;;;;;;;;;10290308;28;20360;-68
2022/03/03 19:11:35;;;;;;;82.32;34.25;;;;;;;;;;10279569;28;20282;-68
2022/03/03 19:16:37;;;;;;;93.10;35.83;;;;;;;;;;10280045;28;20051;-67
2022/03/03 19:21:40;;;;;;;75.03;32.58;;;;;;;;;;10294934;28;20043;-67
2022/03/03 19:26:44;;;;;;;71.43;33.13;;;;;;;;;;10278682;28;20245;-68
2022/03/03 19:31:46;;;;;;;67.85;33.33;;;;;;;;;;10303621;28;20223;-66
2022/03/03 19:36:53;;;;;;;80.78;33.25;;;;;;;;;;10276643;28;20051;-67
2022/03/03 19:41:57;;;;;;;82.25;36.40;;;;;;;;;;10312081;28;20058;-68
2022/03/03 19:47:00;;;;;;;91.65;37.90;;;;;;;;;;10310870;28;20046;-68
2022/03/03 19:52:04;;;;;;;90.30;37.33;;;;;;;;;;10300914;28;20047;-67
2022/03/03 19:57:08;;;;;;;84.15;37.67;;;;;;;;;;10276049;28;20083;-68
2022/03/03 20:02:11;;;;;;;80.55;36.35;;;;;;;;;;10298912;28;20138;-67
2022/03/03 20:07:13;;;;;;;105.57;40.80;;;;;;;;;;10292735;28;20043;-67
2022/03/03 20:12:17;;;;;;;97.53;42.08;;;;;;;;;;10274660;28;20054;-68
2022/03/03 20:17:21;;;;;;;86.30;36.50;;;;;;;;;;10276417;28;20050;-68
2022/03/03 20:22:24;;;;;;;92.15;37.85;;;;;;;;;;10275278;28;20054;-68
2022/03/03 20:27:27;;;;;;;79.32;36.30;;;;;;;;;;10275148;28;20043;-67
2022/03/03 20:32:30;;;;;;;82.82;36.60;;;;;;;;;;10282574;28;20118;-67
2022/03/03 20:37:33;;;;;;;79.93;35.42;;;;;;;;;;10308633;28;20059;-67
2022/03/03 20:42:36;;;;;;;91.20;39.03;;;;;;;;;;10275299;28;20044;-68
2022/03/03 20:47:39;;;;;;;94.72;39.33;;;;;;;;;;10274565;29;20079;-67
2022/03/03 20:52:41;;;;;;;105.53;44.33;;;;;;;;;;10275553;28;20051;-68
2022/03/03 20:57:45;;;;;;;119.75;50.97;;;;;;;;;;10286065;28;20089;-68
2022/03/03 21:02:48;;;;;;;127.35;51.70;;;;;;;;;;10296612;28;20081;-67
2022/03/03 21:07:51;;;;;;;207.93;71.82;;;;;;;;;;10274774;28;20219;-67
2022/03/03 21:12:55;;;;;;;126.38;43.97;;;;;;;;;;10148273;28;21841;-68
2022/03/03 21:17:57;;;;;;;95.30;39.28;;;;;;;;;;10352093;28;20057;-67
2022/03/03 21:23:00;;;;;;;113.40;41.00;;;;;;;;;;10324005;28;20049;-67
2022/03/03 21:28:04;;;;;;;97.20;40.47;;;;;;;;;;10354073;28;20062;-68
2022/03/03 21:33:07;;;;;;;110.32;42.63;;;;;;;;;;10339567;28;20278;-68
2022/03/03 21:38:09;;;;;;;94.78;39.65;;;;;;;;;;10278614;28;20039;-68
2022/03/03 21:43:13;;;;;;;91.93;40.47;;;;;;;;;;10281633;28;20115;-68
2022/03/03 21:48:15;;;;;;;99.63;38.80;;;;;;;;;;10285622;28;20043;-67
2022/03/03 21:53:18;;;;;;;100.43;40.70;;;;;;;;;;10321136;28;20053;-66
2022/03/03 21:58:22;;;;;;;99.00;42.40;;;;;;;;;;10341925;28;20334;-68
2022/03/03 22:03:25;;;;;;;96.50;41.53;;;;;;;;;;10309598;28;20042;-67
2022/03/03 22:08:30;;;;;;;91.60;38.63;;;;;;;;;;10342340;28;20128;-67
2022/03/03 22:13:34;;;;;;;93.47;40.15;;;;;;;;;;10302245;28;20054;-68
2022/03/03 22:18:37;;;;;;;90.13;37.53;;;;;;;;;;10297396;28;20051;-67
2022/03/03 22:23:40;;;;;;;93.97;39.80;;;;;;;;;;10299076;28;20090;-68
2022/03/03 22:28:44;;;;;;;97.60;41.47;;;;;;;;;;10303511;28;20042;-67
2022/03/03 22:33:46;;;;;;;92.35;40.30;;;;;;;;;;10309128;28;20254;-68
2022/03/03 22:38:49;;;;;;;87.10;39.40;;;;;;;;;;10312942;28;20219;-67
2022/03/03 22:43:52;;;;;;;97.50;44.25;;;;;;;;;;10328243;28;20046;-67
2022/03/03 22:48:54;;;;;;;101.53;46.63;;;;;;;;;;10322561;28;20269;-67
2022/03/03 22:53:57;;;;;;;88.78;41.45;;;;;;;;;;10311497;28;20062;-67
2022/03/03 22:59:01;;;;;;;89.20;38.83;;;;;;;;;;10312068;28;20051;-68
2022/03/03 23:09:24;;;;;;;103.30;43.33;;;;;;;;;;10310751;28;20199;-68
2022/03/03 23:14:31;;;;;;;100.38;43.10;;;;;;;;;;10336769;28;20053;-67
2022/03/03 23:19:34;;;;;;;100.85;41.80;;;;;;;;;;10351397;28;20050;-67
2022/03/03 23:24:37;;;;;;;109.07;42.95;;;;;;;;;;10335545;28;20260;-66
2022/03/03 23:29:41;;;;;;;101.35;42.95;;;;;;;;;;10349666;28;20050;-68
2022/03/03 23:34:48;;;;;;;98.40;40.50;;;;;;;;;;10322114;28;20118;-68
2022/03/03 23:39:50;;;;;;;97.30;41.90;;;;;;;;;;10302464;28;20062;-67
2022/03/03 23:44:54;;;;;;;86.78;41.00;;;;;;;;;;10342011;28;20152;-67
2022/03/03 23:49:57;;;;;;;89.40;40.95;;;;;;;;;;10323857;28;20039;-67
2022/03/03 23:55:00;;;;;;;86.47;38.70;;;;;;;;;;10312764;28;20059;-66
